sensor_id;sensor_type;location;lat;lon;timestamp;pressure;altitude;pressure_sealevel;temperature;humidity
59158;BME280;44940;55.060;73.168;2022-09-13T00:00:39;101773.06;;;4.12;100.00
59158;BME280;44940;55.060;73.168;2022-09-13T00:03:09;101765.38;;;4.14;100.00
59158;BME280;44940;55.060;73.168;2022-09-13T00:05:37;101765.38;;;4.24;100.00
59158;BME280;44940;55.060;73.168;2022-09-13T00:08:05;101773.03;;;4.28;100.00
59158;BME280;44940;55.060;73.168;2022-09-13T00:10:34;101768.91;;;4.20;100.00
59158;BME280;44940;55.060;73.168;2022-09-13T00:13:01;101777.41;;;4.18;100.00
59158;BME280;44940;55.060;73.168;2022-09-13T00:15:29;101778.81;;;4.16;100.00
59158;BME280;44940;55.060;73.168;2022-09-13T00:17:56;101776.88;;;4.11;100.00
59158;BME280;44940;55.060;73.168;2022-09-13T00:20:25;101777.44;;;4.08;100.00
59158;BME280;44940;55.060;73.168;2022-09-13T00:22:52;101785.38;;;4.10;100.00
59158;BME280;44940;55.060;73.168;2022-09-13T00:25:20;101791.16;;;4.08;100.00
59158;BME280;44940;55.060;73.168;2022-09-13T00:27:47;101794.72;;;4.09;100.00
59158;BME280;44940;55.060;73.168;2022-09-13T00:30:14;101796.63;;;4.08;100.00
59158;BME280;44940;55.060;73.168;2022-09-13T00:32:41;101796.63;;;4.08;100.00
59158;BME280;44940;55.060;73.168;2022-09-13T00:35:09;101800.75;;;4.06;100.00
59158;BME280;44940;55.060;73.168;2022-09-13T00:37:37;101801.84;;;4.10;100.00
59158;BME280;44940;55.060;73.168;2022-09-13T00:40:06;101796.91;;;4.17;100.00
59158;BME280;44940;55.060;73.168;2022-09-13T00:42:33;101802.66;;;4.20;100.00
59158;BME280;44940;55.060;73.168;2022-09-13T00:45:02;101801.00;;;4.19;100.00
59158;BME280;44940;55.060;73.168;2022-09-13T00:47:43;101801.53;;;4.21;100.00
59158;BME280;44940;55.060;73.168;2022-09-13T00:50:18;101803.22;;;4.28;100.00
59158;BME280;44940;55.060;73.168;2022-09-13T00:52:51;101807.84;;;4.32;100.00
59158;BME280;44940;55.060;73.168;2022-09-13T00:55:23;101802.09;;;4.34;100.00
59158;BME280;44940;55.060;73.168;2022-09-13T00:57:52;101818.00;;;4.32;100.00
59158;BME280;44940;55.060;73.168;2022-09-13T01:00:20;101810.34;;;4.29;100.00
59158;BME280;44940;55.060;73.168;2022-09-13T01:02:51;101809.78;;;4.11;100.00
59158;BME280;44940;55.060;73.168;2022-09-13T01:05:22;101807.03;;;4.16;100.00
59158;BME280;44940;55.060;73.168;2022-09-13T01:07:52;101817.47;;;4.24;100.00
59158;BME280;44940;55.060;73.168;2022-09-13T01:10:19;101815.00;;;4.28;100.00
59158;BME280;44940;55.060;73.168;2022-09-13T01:12:51;101809.78;;;4.32;100.00
59158;BME280;44940;55.060;73.168;2022-09-13T01:15:21;101819.38;;;4.34;100.00
59158;BME280;44940;55.060;73.168;2022-09-13T01:17:49;101805.66;;;4.24;100.00
59158;BME280;44940;55.060;73.168;2022-09-13T01:20:18;101818.28;;;4.30;100.00
59158;BME280;44940;55.060;73.168;2022-09-13T01:23:14;101813.06;;;4.23;100.00
59158;BME280;44940;55.060;73.168;2022-09-13T01:26:25;101816.38;;;4.15;100.00
59158;BME280;44940;55.060;73.168;2022-09-13T01:29:24;101823.22;;;4.08;100.00
59158;BME280;44940;55.060;73.168;2022-09-13T01:32:06;101822.69;;;4.06;100.00
59158;BME280;44940;55.060;73.168;2022-09-13T01:34:49;101812.78;;;4.00;100.00
59158;BME280;44940;55.060;73.168;2022-09-13T01:37:32;101824.03;;;4.03;100.00
59158;BME280;44940;55.060;73.168;2022-09-13T01:40:10;101826.50;;;4.05;100.00
59158;BME280;44940;55.060;73.168;2022-09-13T01:42:59;101831.97;;;4.05;100.00
59158;BME280;44940;55.060;73.168;2022-09-13T01:45:36;101822.41;;;4.07;100.00
59158;BME280;44940;55.060;73.168;2022-09-13T01:48:10;101824.31;;;4.17;100.00
59158;BME280;44940;55.060;73.168;2022-09-13T01:50:44;101834.47;;;4.37;100.00
59158;BME280;44940;55.060;73.168;2022-09-13T01:53:18;101833.91;;;4.45;100.00
59158;BME280;44940;55.060;73.168;2022-09-13T01:55:53;101833.88;;;4.60;100.00
59158;BME280;44940;55.060;73.168;2022-09-13T01:58:26;101840.47;;;4.64;100.00
59158;BME280;44940;55.060;73.168;2022-09-13T02:01:00;101843.75;;;4.71;100.00
59158;BME280;44940;55.060;73.168;2022-09-13T02:03:36;101841.53;;;4.78;100.00
59158;BME280;44940;55.060;73.168;2022-09-13T02:06:09;101851.41;;;4.84;100.00
59158;BME280;44940;55.060;73.168;2022-09-13T02:08:41;101839.84;;;4.93;100.00
59158;BME280;44940;55.060;73.168;2022-09-13T02:11:10;101851.31;;;5.10;100.00
59158;BME280;44940;55.060;73.168;2022-09-13T02:13:44;101849.91;;;5.23;100.00
59158;BME280;44940;55.060;73.168;2022-09-13T02:16:17;101845.50;;;5.27;100.00
59158;BME280;44940;55.060;73.168;2022-09-13T02:18:50;101852.44;;;5.68;100.00
59158;BME280;44940;55.060;73.168;2022-09-13T02:21:24;101836.72;;;5.79;100.00
59158;BME280;44940;55.060;73.168;2022-09-13T02:23:57;101846.56;;;5.85;100.00
59158;BME280;44940;55.060;73.168;2022-09-13T02:26:27;101848.94;;;6.02;100.00
59158;BME280;44940;55.060;73.168;2022-09-13T02:28:58;101846.66;;;6.14;100.00
59158;BME280;44940;55.060;73.168;2022-09-13T02:31:30;101849.84;;;6.26;100.00
59158;BME280;44940;55.060;73.168;2022-09-13T02:34:03;101847.88;;;6.32;100.00
59158;BME280;44940;55.060;73.168;2022-09-13T02:36:35;101853.59;;;6.41;100.00
59158;BME280;44940;55.060;73.168;2022-09-13T02:39:08;101828.41;;;6.57;100.00
59158;BME280;44940;55.060;73.168;2022-09-13T02:41:42;101843.19;;;7.57;100.00
59158;BME280;44940;55.060;73.168;2022-09-13T02:44:15;101844.47;;;8.54;100.00
59158;BME280;44940;55.060;73.168;2022-09-13T02:47:03;101846.69;;;9.25;100.00
59158;BME280;44940;55.060;73.168;2022-09-13T02:49:43;101842.75;;;10.03;97.30
59158;BME280;44940;55.060;73.168;2022-09-13T02:52:19;101855.78;;;10.70;93.99
59158;BME280;44940;55.060;73.168;2022-09-13T02:54:51;101861.41;;;10.87;93.27
59158;BME280;44940;55.060;73.168;2022-09-13T02:57:22;101840.75;;;11.42;92.76
59158;BME280;44940;55.060;73.168;2022-09-13T02:59:53;101861.75;;;11.34;92.30
59158;BME280;44940;55.060;73.168;2022-09-13T03:02:22;101864.78;;;11.64;90.54
59158;BME280;44940;55.060;73.168;2022-09-13T03:04:52;101855.63;;;11.06;92.08
59158;BME280;44940;55.060;73.168;2022-09-13T03:07:19;101863.81;;;11.11;91.90
59158;BME280;44940;55.060;73.168;2022-09-13T03:09:48;101865.34;;;11.83;89.74
59158;BME280;44940;55.060;73.168;2022-09-13T03:12:29;101855.53;;;12.37;88.03
59158;BME280;44940;55.060;73.168;2022-09-13T03:15:09;101861.84;;;12.64;86.18
59158;BME280;44940;55.060;73.168;2022-09-13T03:17:48;101861.47;;;12.83;84.53
59158;BME280;44940;55.060;73.168;2022-09-13T03:20:25;101868.66;;;12.84;85.47
59158;BME280;44940;55.060;73.168;2022-09-13T03:23:11;101869.19;;;13.24;83.52
59158;BME280;44940;55.060;73.168;2022-09-13T03:25:57;101868.97;;;13.67;82.82
59158;BME280;44940;55.060;73.168;2022-09-13T03:28:36;101877.38;;;14.09;81.40
59158;BME280;44940;55.060;73.168;2022-09-13T03:31:09;101873.78;;;14.62;79.96
59158;BME280;44940;55.060;73.168;2022-09-13T03:33:43;101879.59;;;14.36;77.75
59158;BME280;44940;55.060;73.168;2022-09-13T03:36:18;101873.63;;;14.46;78.64
59158;BME280;44940;55.060;73.168;2022-09-13T03:38:54;101883.53;;;15.13;75.48
59158;BME280;44940;55.060;73.168;2022-09-13T03:41:30;101878.75;;;14.90;75.53
59158;BME280;44940;55.060;73.168;2022-09-13T03:44:01;71117.31;;;-144.94;100.00
59158;BME280;44940;55.060;73.168;2022-09-13T03:46:34;71117.31;;;-144.94;100.00
59158;BME280;44940;55.060;73.168;2022-09-13T03:49:05;71117.31;;;-144.94;100.00
59158;BME280;44940;55.060;73.168;2022-09-13T03:51:35;71117.31;;;-144.94;100.00
59158;BME280;44940;55.060;73.168;2022-09-13T03:54:04;101879.97;;;16.14;62.85
59158;BME280;44940;55.060;73.168;2022-09-13T03:56:32;71117.31;;;-144.94;100.00
59158;BME280;44940;55.060;73.168;2022-09-13T03:58:59;71117.31;;;-144.94;100.00
59158;BME280;44940;55.060;73.168;2022-09-13T04:01:26;71117.31;;;-144.94;100.00
59158;BME280;44940;55.060;73.168;2022-09-13T04:03:54;101879.97;;;16.14;62.85
59158;BME280;44940;55.060;73.168;2022-09-13T04:06:21;101892.59;;;15.96;59.64
59158;BME280;44940;55.060;73.168;2022-09-13T04:08:49;71117.31;;;-144.94;100.00
59158;BME280;44940;55.060;73.168;2022-09-13T04:11:17;71117.31;;;-144.94;100.00
59158;BME280;44940;55.060;73.168;2022-09-13T04:13:46;71117.31;;;-144.94;100.00
59158;BME280;44940;55.060;73.168;2022-09-13T04:16:13;101873.91;;;16.24;58.66
59158;BME280;44940;55.060;73.168;2022-09-13T04:18:41;71117.31;;;-144.94;100.00
59158;BME280;44940;55.060;73.168;2022-09-13T04:21:08;71117.31;;;-144.94;100.00
59158;BME280;44940;55.060;73.168;2022-09-13T04:23:35;71117.31;;;-144.94;100.00
59158;BME280;44940;55.060;73.168;2022-09-13T04:26:04;101878.97;;;16.90;53.87
59158;BME280;44940;55.060;73.168;2022-09-13T04:28:32;101878.97;;;16.90;53.87
59158;BME280;44940;55.060;73.168;2022-09-13T04:30:59;101889.13;;;16.67;52.61
59158;BME280;44940;55.060;73.168;2022-09-13T04:33:26;101894.03;;;16.58;51.69
59158;BME280;44940;55.060;73.168;2022-09-13T04:35:56;101886.91;;;16.88;52.42
59158;BME280;44940;55.060;73.168;2022-09-13T04:38:24;101886.91;;;16.88;52.42
59158;BME280;44940;55.060;73.168;2022-09-13T04:40:55;101871.13;;;17.12;52.05
59158;BME280;44940;55.060;73.168;2022-09-13T04:43:24;101872.75;;;17.13;52.49
59158;BME280;44940;55.060;73.168;2022-09-13T04:45:51;101881.25;;;17.01;53.98
59158;BME280;44940;55.060;73.168;2022-09-13T04:48:18;101871.69;;;17.02;51.92
59158;BME280;44940;55.060;73.168;2022-09-13T04:50:45;101871.69;;;17.02;51.92
59158;BME280;44940;55.060;73.168;2022-09-13T04:53:13;71117.31;;;-144.94;100.00
59158;BME280;44940;55.060;73.168;2022-09-13T04:55:40;101880.38;;;16.41;51.96
59158;BME280;44940;55.060;73.168;2022-09-13T04:58:07;101881.53;;;16.39;52.22
59158;BME280;44940;55.060;73.168;2022-09-13T05:00:36;71117.31;;;-144.94;100.00
59158;BME280;44940;55.060;73.168;2022-09-13T05:03:03;71117.31;;;-144.94;100.00
59158;BME280;44940;55.060;73.168;2022-09-13T05:05:31;71117.31;;;-144.94;100.00
59158;BME280;44940;55.060;73.168;2022-09-13T05:07:58;71117.31;;;-144.94;100.00
59158;BME280;44940;55.060;73.168;2022-09-13T05:10:25;101882.84;;;16.02;54.40
59158;BME280;44940;55.060;73.168;2022-09-13T05:12:52;101871.88;;;15.97;51.87
59158;BME280;44940;55.060;73.168;2022-09-13T05:15:19;101873.50;;;15.98;52.22
59158;BME280;44940;55.060;73.168;2022-09-13T05:17:48;101882.31;;;16.12;51.50
59158;BME280;44940;55.060;73.168;2022-09-13T05:20:15;101876.38;;;16.14;52.59
59158;BME280;44940;55.060;73.168;2022-09-13T05:22:42;101876.38;;;16.14;52.59
59158;BME280;44940;55.060;73.168;2022-09-13T05:25:09;101866.41;;;16.00;50.29
59158;BME280;44940;55.060;73.168;2022-09-13T05:27:37;101870.22;;;16.08;50.02
59158;BME280;44940;55.060;73.168;2022-09-13T05:30:06;101870.50;;;16.31;51.99
59158;BME280;44940;55.060;73.168;2022-09-13T05:32:33;101867.16;;;16.25;51.41
59158;BME280;44940;55.060;73.168;2022-09-13T05:35:02;101860.16;;;16.19;50.43
59158;BME280;44940;55.060;73.168;2022-09-13T05:37:29;101872.88;;;16.17;51.61
59158;BME280;44940;55.060;73.168;2022-09-13T05:39:56;101855.28;;;16.16;50.88
59158;BME280;44940;55.060;73.168;2022-09-13T05:42:23;101861.00;;;16.20;49.89
59158;BME280;44940;55.060;73.168;2022-09-13T05:44:50;101858.66;;;16.22;51.14
59158;BME280;44940;55.060;73.168;2022-09-13T05:47:17;101852.13;;;16.18;50.28
59158;BME280;44940;55.060;73.168;2022-09-13T05:49:45;101849.69;;;16.16;50.03
59158;BME280;44940;55.060;73.168;2022-09-13T05:52:13;101852.94;;;16.18;50.35
59158;BME280;44940;55.060;73.168;2022-09-13T05:54:40;101846.16;;;16.03;51.50
59158;BME280;44940;55.060;73.168;2022-09-13T05:57:08;101849.47;;;15.81;50.70
59158;BME280;44940;55.060;73.168;2022-09-13T05:59:35;101839.31;;;15.89;50.19
59158;BME280;44940;55.060;73.168;2022-09-13T06:02:02;101843.47;;;15.95;48.71
59158;BME280;44940;55.060;73.168;2022-09-13T06:04:29;101853.47;;;16.08;51.03
59158;BME280;44940;55.060;73.168;2022-09-13T06:06:56;101855.63;;;16.15;50.43
59158;BME280;44940;55.060;73.168;2022-09-13T06:09:25;101847.44;;;15.94;50.61
59158;BME280;44940;55.060;73.168;2022-09-13T06:11:52;101846.53;;;15.90;49.64
59158;BME280;44940;55.060;73.168;2022-09-13T06:14:19;101858.41;;;15.74;48.79
59158;BME280;44940;55.060;73.168;2022-09-13T06:16:46;101841.41;;;15.79;46.60
59158;BME280;44940;55.060;73.168;2022-09-13T06:19:13;101856.69;;;15.70;48.25
59158;BME280;44940;55.060;73.168;2022-09-13T06:21:40;101851.47;;;15.68;48.45
59158;BME280;44940;55.060;73.168;2022-09-13T06:24:07;101858.78;;;15.61;49.77
59158;BME280;44940;55.060;73.168;2022-09-13T06:26:36;101858.88;;;15.52;49.82
59158;BME280;44940;55.060;73.168;2022-09-13T06:29:03;101853.19;;;15.48;49.09
59158;BME280;44940;55.060;73.168;2022-09-13T06:31:30;101856.78;;;15.37;50.49
59158;BME280;44940;55.060;73.168;2022-09-13T06:33:59;101848.91;;;15.27;50.80
59158;BME280;44940;55.060;73.168;2022-09-13T06:36:26;101859.13;;;15.23;52.10
59158;BME280;44940;55.060;73.168;2022-09-13T06:38:53;101860.88;;;15.15;51.81
59158;BME280;44940;55.060;73.168;2022-09-13T06:41:22;101860.16;;;15.06;51.23
59158;BME280;44940;55.060;73.168;2022-09-13T06:43:54;101855.50;;;14.98;50.99
59158;BME280;44940;55.060;73.168;2022-09-13T06:46:21;101857.94;;;14.99;49.49
59158;BME280;44940;55.060;73.168;2022-09-13T06:48:48;101852.13;;;14.92;48.58
59158;BME280;44940;55.060;73.168;2022-09-13T06:51:17;101855.56;;;14.77;48.78
59158;BME280;44940;55.060;73.168;2022-09-13T06:53:45;101856.28;;;14.74;49.23
59158;BME280;44940;55.060;73.168;2022-09-13T06:56:15;101850.81;;;14.77;50.64
59158;BME280;44940;55.060;73.168;2022-09-13T06:58:45;101857.78;;;14.71;51.42
59158;BME280;44940;55.060;73.168;2022-09-13T07:01:15;101848.25;;;14.72;50.52
59158;BME280;44940;55.060;73.168;2022-09-13T07:03:45;101851.88;;;14.85;51.67
59158;BME280;44940;55.060;73.168;2022-09-13T07:06:14;101846.53;;;14.92;50.66
59158;BME280;44940;55.060;73.168;2022-09-13T07:08:42;101852.63;;;15.06;47.66
59158;BME280;44940;55.060;73.168;2022-09-13T07:11:11;101849.22;;;15.01;47.43
59158;BME280;44940;55.060;73.168;2022-09-13T07:13:39;101834.69;;;14.95;47.58
59158;BME280;44940;55.060;73.168;2022-09-13T07:16:08;101846.09;;;15.14;47.74
59158;BME280;44940;55.060;73.168;2022-09-13T07:18:37;101836.31;;;15.21;47.00
59158;BME280;44940;55.060;73.168;2022-09-13T07:21:06;101838.19;;;15.29;47.20
59158;BME280;44940;55.060;73.168;2022-09-13T07:23:36;101842.63;;;15.30;46.90
59158;BME280;44940;55.060;73.168;2022-09-13T07:26:04;101833.53;;;15.33;46.87
59158;BME280;44940;55.060;73.168;2022-09-13T07:28:33;101829.81;;;15.16;47.78
59158;BME280;44940;55.060;73.168;2022-09-13T07:31:05;101837.03;;;15.17;46.95
59158;BME280;44940;55.060;73.168;2022-09-13T07:33:33;101837.84;;;15.06;49.15
59158;BME280;44940;55.060;73.168;2022-09-13T07:36:02;101838.75;;;14.98;49.62
59158;BME280;44940;55.060;73.168;2022-09-13T07:38:33;101830.72;;;14.84;50.60
59158;BME280;44940;55.060;73.168;2022-09-13T07:41:01;101827.91;;;14.84;49.34
59158;BME280;44940;55.060;73.168;2022-09-13T07:43:28;101837.00;;;14.93;49.79
59158;BME280;44940;55.060;73.168;2022-09-13T07:45:56;101850.50;;;14.91;50.32
59158;BME280;44940;55.060;73.168;2022-09-13T07:48:25;101843.53;;;14.85;49.97
59158;BME280;44940;55.060;73.168;2022-09-13T07:50:57;101837.09;;;14.72;50.98
59158;BME280;44940;55.060;73.168;2022-09-13T07:53:25;101850.56;;;14.70;50.34
59158;BME280;44940;55.060;73.168;2022-09-13T07:55:53;101849.38;;;14.59;51.69
59158;BME280;44940;55.060;73.168;2022-09-13T07:58:20;101855.88;;;14.51;51.70
59158;BME280;44940;55.060;73.168;2022-09-13T08:00:47;101849.50;;;14.42;52.59
59158;BME280;44940;55.060;73.168;2022-09-13T08:03:15;101844.75;;;14.42;53.40
59158;BME280;44940;55.060;73.168;2022-09-13T08:05:42;101844.44;;;14.44;54.45
59158;BME280;44940;55.060;73.168;2022-09-13T08:08:09;101834.97;;;14.36;54.24
59158;BME280;44940;55.060;73.168;2022-09-13T08:10:37;101837.88;;;14.40;54.07
59158;BME280;44940;55.060;73.168;2022-09-13T08:13:04;101852.19;;;14.38;54.51
59158;BME280;44940;55.060;73.168;2022-09-13T08:15:32;101844.03;;;14.33;53.11
59158;BME280;44940;55.060;73.168;2022-09-13T08:17:59;101838.69;;;14.28;52.66
59158;BME280;44940;55.060;73.168;2022-09-13T08:20:26;101835.00;;;14.15;51.55
59158;BME280;44940;55.060;73.168;2022-09-13T08:22:54;101839.56;;;14.20;51.12
59158;BME280;44940;55.060;73.168;2022-09-13T08:25:21;101838.97;;;14.14;50.09
59158;BME280;44940;55.060;73.168;2022-09-13T08:27:49;101842.78;;;14.10;51.02
59158;BME280;44940;55.060;73.168;2022-09-13T08:30:17;101838.19;;;14.05;51.76
59158;BME280;44940;55.060;73.168;2022-09-13T08:32:44;101838.88;;;14.02;52.50
59158;BME280;44940;55.060;73.168;2022-09-13T08:35:11;101839.91;;;13.97;53.08
59158;BME280;44940;55.060;73.168;2022-09-13T08:37:38;101843.72;;;13.93;54.24
59158;BME280;44940;55.060;73.168;2022-09-13T08:40:06;101834.09;;;13.90;54.14
59158;BME280;44940;55.060;73.168;2022-09-13T08:42:45;101836.72;;;13.87;55.24
59158;BME280;44940;55.060;73.168;2022-09-13T08:45:17;101840.19;;;13.84;56.06
59158;BME280;44940;55.060;73.168;2022-09-13T08:47:49;101820.69;;;13.63;57.39
59158;BME280;44940;55.060;73.168;2022-09-13T08:50:22;101812.06;;;13.56;57.59
59158;BME280;44940;55.060;73.168;2022-09-13T08:53:02;101830.13;;;13.71;57.58
59158;BME280;44940;55.060;73.168;2022-09-13T08:55:45;101818.09;;;13.58;58.52
59158;BME280;44940;55.060;73.168;2022-09-13T09:01:22;101831.28;;;13.70;58.44
59158;BME280;44940;55.060;73.168;2022-09-13T09:03:54;101826.03;;;13.68;59.77
59158;BME280;44940;55.060;73.168;2022-09-13T09:06:24;101829.03;;;13.63;59.72
59158;BME280;44940;55.060;73.168;2022-09-13T09:08:54;101826.25;;;13.63;59.25
59158;BME280;44940;55.060;73.168;2022-09-13T09:11:26;101829.91;;;13.55;64.35
59158;BME280;44940;55.060;73.168;2022-09-13T09:13:59;101833.22;;;13.48;65.35
59158;BME280;44940;55.060;73.168;2022-09-13T09:16:34;101823.44;;;13.42;63.37
59158;BME280;44940;55.060;73.168;2022-09-13T09:19:10;101827.38;;;13.41;62.85
59158;BME280;44940;55.060;73.168;2022-09-13T09:21:40;101827.00;;;13.22;61.63
59158;BME280;44940;55.060;73.168;2022-09-13T09:24:15;101823.75;;;13.11;61.84
59158;BME280;44940;55.060;73.168;2022-09-13T09:26:44;101824.25;;;13.04;60.54
59158;BME280;44940;55.060;73.168;2022-09-13T09:29:16;101814.63;;;13.02;59.81
59158;BME280;44940;55.060;73.168;2022-09-13T09:31:53;101815.56;;;13.06;60.48
59158;BME280;44940;55.060;73.168;2022-09-13T09:34:28;101821.44;;;13.13;60.55
59158;BME280;44940;55.060;73.168;2022-09-13T09:37:15;101815.38;;;13.20;59.82
59158;BME280;44940;55.060;73.168;2022-09-13T09:39:46;101824.34;;;13.25;60.08
59158;BME280;44940;55.060;73.168;2022-09-13T09:42:15;101818.63;;;13.30;59.98
59158;BME280;44940;55.060;73.168;2022-09-13T09:44:46;101822.34;;;13.34;59.92
59158;BME280;44940;55.060;73.168;2022-09-13T09:47:18;101821.47;;;13.43;60.28
59158;BME280;44940;55.060;73.168;2022-09-13T09:49:47;101821.81;;;13.41;60.08
59158;BME280;44940;55.060;73.168;2022-09-13T09:52:38;101818.81;;;13.46;59.87
59158;BME280;44940;55.060;73.168;2022-09-13T09:55:10;101821.44;;;13.51;59.72
59158;BME280;44940;55.060;73.168;2022-09-13T09:57:53;101824.81;;;13.57;58.40
59158;BME280;44940;55.060;73.168;2022-09-13T10:00:23;101819.03;;;13.62;58.88
59158;BME280;44940;55.060;73.168;2022-09-13T10:02:54;101820.47;;;13.68;58.56
59158;BME280;44940;55.060;73.168;2022-09-13T10:05:22;101823.75;;;13.70;58.55
59158;BME280;44940;55.060;73.168;2022-09-13T10:07:54;101820.91;;;13.79;58.56
59158;BME280;44940;55.060;73.168;2022-09-13T10:10:25;101816.75;;;13.85;57.40
59158;BME280;44940;55.060;73.168;2022-09-13T10:12:56;101819.81;;;13.92;57.43
59158;BME280;44940;55.060;73.168;2022-09-13T10:15:27;101817.16;;;13.95;56.96
59158;BME280;44940;55.060;73.168;2022-09-13T10:18:05;101817.16;;;13.95;56.45
59158;BME280;44940;55.060;73.168;2022-09-13T10:20:40;101827.97;;;13.97;56.02
59158;BME280;44940;55.060;73.168;2022-09-13T10:23:16;101811.94;;;13.94;56.51
59158;BME280;44940;55.060;73.168;2022-09-13T10:25:53;101812.75;;;13.94;54.11
59158;BME280;44940;55.060;73.168;2022-09-13T10:28:21;101821.56;;;13.96;53.81
59158;BME280;44940;55.060;73.168;2022-09-13T10:30:53;101819.94;;;13.95;54.24
59158;BME280;44940;55.060;73.168;2022-09-13T10:33:27;101819.00;;;13.91;53.99
59158;BME280;44940;55.060;73.168;2022-09-13T10:35:58;101826.34;;;13.96;53.88
59158;BME280;44940;55.060;73.168;2022-09-13T10:38:30;101816.22;;;13.91;53.73
59158;BME280;44940;55.060;73.168;2022-09-13T10:40:59;101815.06;;;13.92;54.34
59158;BME280;44940;55.060;73.168;2022-09-13T10:43:29;101798.75;;;13.82;53.31
59158;BME280;44940;55.060;73.168;2022-09-13T10:45:58;101814.25;;;13.92;53.53
59158;BME280;44940;55.060;73.168;2022-09-13T10:48:30;101809.97;;;13.94;53.23
59158;BME280;44940;55.060;73.168;2022-09-13T10:51:20;101802.69;;;13.81;54.20
59158;BME280;44940;55.060;73.168;2022-09-13T10:54:07;101813.78;;;13.90;54.79
59158;BME280;44940;55.060;73.168;2022-09-13T10:56:35;101816.69;;;13.93;55.13
59158;BME280;44940;55.060;73.168;2022-09-13T10:59:15;101822.38;;;13.97;54.78
59158;BME280;44940;55.060;73.168;2022-09-13T11:01:48;101807.56;;;13.84;54.70
59158;BME280;44940;55.060;73.168;2022-09-13T11:04:42;101816.34;;;13.95;55.48
59158;BME280;44940;55.060;73.168;2022-09-13T11:10:08;101814.44;;;13.87;55.45
59158;BME280;44940;55.060;73.168;2022-09-13T11:12:42;101816.41;;;13.86;54.80
59158;BME280;44940;55.060;73.168;2022-09-13T11:15:19;101820.56;;;13.80;56.13
59158;BME280;44940;55.060;73.168;2022-09-13T11:18:12;101811.63;;;13.66;55.68
59158;BME280;44940;55.060;73.168;2022-09-13T11:20:55;101812.47;;;13.66;54.53
59158;BME280;44940;55.060;73.168;2022-09-13T11:26:33;101814.50;;;13.57;56.66
59158;BME280;44940;55.060;73.168;2022-09-13T11:29:08;101807.97;;;13.53;57.38
59158;BME280;44940;55.060;73.168;2022-09-13T11:31:44;101809.13;;;13.52;57.58
59158;BME280;44940;55.060;73.168;2022-09-13T11:34:25;101813.09;;;13.51;57.21
59158;BME280;44940;55.060;73.168;2022-09-13T11:37:17;101808.31;;;13.52;56.95
59158;BME280;44940;55.060;73.168;2022-09-13T11:39:53;101809.31;;;13.47;57.21
59158;BME280;44940;55.060;73.168;2022-09-13T11:42:37;101810.81;;;13.45;56.69
59158;BME280;44940;55.060;73.168;2022-09-13T11:45:23;101808.50;;;13.47;56.34
59158;BME280;44940;55.060;73.168;2022-09-13T11:48:19;101810.28;;;13.51;56.25
59158;BME280;44940;55.060;73.168;2022-09-13T11:50:57;101809.63;;;13.54;55.33
59158;BME280;44940;55.060;73.168;2022-09-13T11:56:25;101806.50;;;13.56;54.89
59158;BME280;44940;55.060;73.168;2022-09-13T11:58:58;101798.94;;;13.56;54.95
59158;BME280;44940;55.060;73.168;2022-09-13T12:01:31;101813.69;;;13.57;54.87
59158;BME280;44940;55.060;73.168;2022-09-13T12:04:02;101810.44;;;13.55;55.39
59158;BME280;44940;55.060;73.168;2022-09-13T12:06:34;101810.63;;;13.50;56.22
59158;BME280;44940;55.060;73.168;2022-09-13T12:09:06;101809.19;;;13.44;57.38
59158;BME280;44940;55.060;73.168;2022-09-13T12:11:40;101815.28;;;13.37;57.84
59158;BME280;44940;55.060;73.168;2022-09-13T12:14:13;101810.53;;;13.38;57.55
59158;BME280;44940;55.060;73.168;2022-09-13T12:16:43;101784.56;;;13.25;57.97
59158;BME280;44940;55.060;73.168;2022-09-13T12:19:15;101813.53;;;13.32;58.24
59158;BME280;44940;55.060;73.168;2022-09-13T12:21:44;101798.81;;;13.23;58.71
59158;BME280;44940;55.060;73.168;2022-09-13T12:24:18;101805.22;;;13.24;58.95
59158;BME280;44940;55.060;73.168;2022-09-13T12:26:51;101805.06;;;13.20;59.01
59158;BME280;44940;55.060;73.168;2022-09-13T12:29:24;101808.03;;;13.15;60.00
59158;BME280;44940;55.060;73.168;2022-09-13T12:31:58;101807.06;;;13.11;60.03
59158;BME280;44940;55.060;73.168;2022-09-13T12:34:30;101810.81;;;13.06;60.33
59158;BME280;44940;55.060;73.168;2022-09-13T12:37:10;101804.66;;;13.01;60.47
59158;BME280;44940;55.060;73.168;2022-09-13T12:39:59;101809.25;;;12.97;63.72
59158;BME280;44940;55.060;73.168;2022-09-13T12:43:08;101808.13;;;12.89;63.69
59158;BME280;44940;55.060;73.168;2022-09-13T12:46:07;101809.81;;;12.82;66.29
59158;BME280;44940;55.060;73.168;2022-09-13T12:52:01;101809.66;;;12.69;69.15
59158;BME280;44940;55.060;73.168;2022-09-13T12:54:47;101809.84;;;12.64;70.02
59158;BME280;44940;55.060;73.168;2022-09-13T12:57:34;101812.00;;;12.59;71.99
59158;BME280;44940;55.060;73.168;2022-09-13T13:00:18;101805.97;;;12.48;73.60
59158;BME280;44940;55.060;73.168;2022-09-13T13:02:54;101816.59;;;12.46;75.26
59158;BME280;44940;55.060;73.168;2022-09-13T13:05:30;101812.88;;;12.42;74.33
59158;BME280;44940;55.060;73.168;2022-09-13T13:08:02;101811.41;;;12.36;74.98
59158;BME280;44940;55.060;73.168;2022-09-13T13:10:32;101813.19;;;12.32;76.65
59158;BME280;44940;55.060;73.168;2022-09-13T13:13:13;101822.00;;;12.34;78.12
59158;BME280;44940;55.060;73.168;2022-09-13T13:15:58;101814.53;;;12.26;81.10
59158;BME280;44940;55.060;73.168;2022-09-13T13:18:29;101806.84;;;12.14;80.32